Lower Matecumbe Key, Florida
Current Conditions -  °F | °C
As of 6:53 PM on Wednesday 26 Nov 2014 (Local Time) from KMTH Reporting Station
Scattered Clouds Scattered Clouds  
Wind Chill: 19°   Ceiling: Unl
Heat Index: 19°   Visibility: 10mi
Dew Point: 12°   Wind: 14mph
Humidity: 61%   Direction: 10°N
Pressure: 30.14"   Gusts: 25mph
Location:  24.8649°N, 80.7192°W
Report Text: KMTH 262353Z AUTO 01012G22KT 10SM SCT100 19/12 A3014 RMK AO2 PK WND 36027/2314 SLP207 T01940117 10217 20194 53016
Loading
Personal Weather Stations






























Interactive Weather Map New forecast layout! Learn more

10-Day Weather Forecast

Advertisements
Track Severe Weather on mobile